Agate, Nebraska
Current Conditions -  °F | °C
As of 3:53 PM on Saturday 25 Oct 2014 (Local Time) from KTOR Reporting Station
Clear Clear  
Wind Chill: 80°   Ceiling: Unl
Heat Index: 80°   Visibility: 10mi
Dew Point: 34°   Wind: 10mph
Humidity: 19%   Direction: 120°ESE
Pressure: 30"   Gusts: NA
Location:  42.42°N, 103.79°W
Report Text: KTOR 252153Z AUTO 12009KT 10SM CLR 27/01 A3000 RMK AO2 SLP125 T02670011
Loading
Personal Weather Stations






























Interactive Weather Map
Tropical Storm Tracking
New forecast layout! Learn more

10-Day Weather Forecast

Advertisements
Track Severe Weather on mobile